createdAt,value
2016-04-20T08:27:43.203Z,976.66
2016-04-20T08:28:43.206Z,976.67
2016-04-20T08:29:43.208Z,976.7
2016-04-20T08:30:43.211Z,976.69
2016-04-20T08:31:43.230Z,976.64
2016-04-20T08:32:43.232Z,976.66
2016-04-20T08:33:43.235Z,976.7
2016-04-20T08:34:43.254Z,976.71
2016-04-20T08:35:43.256Z,976.65
2016-04-20T08:36:43.274Z,976.61
2016-04-20T08:37:43.277Z,976.62
2016-04-20T08:38:43.279Z,976.61
2016-04-20T08:39:43.298Z,976.64
2016-04-20T08:40:43.301Z,976.65
2016-04-20T08:41:43.304Z,976.68
2016-04-20T08:42:43.306Z,976.7
2016-04-20T08:43:43.324Z,976.78
2016-04-20T08:44:43.327Z,976.71
2016-04-20T08:45:43.330Z,976.81
2016-04-20T08:46:43.332Z,976.78
2016-04-20T08:47:43.351Z,976.75
2016-04-20T08:48:43.354Z,976.87
2016-04-20T08:49:43.388Z,976.84
2016-04-20T08:50:43.359Z,976.78
2016-04-20T08:51:43.378Z,976.86
2016-04-20T08:52:43.380Z,976.8
2016-04-20T08:53:43.383Z,976.92
2016-04-20T08:54:43.386Z,976.78
2016-04-20T08:55:43.403Z,976.82
2016-04-20T08:56:43.406Z,976.81
2016-04-20T08:57:43.424Z,976.75
2016-04-20T08:58:43.428Z,976.77
2016-04-20T08:59:43.430Z,976.73
2016-04-20T09:00:43.433Z,976.69
2016-04-20T09:01:43.436Z,976.72
2016-04-20T09:02:43.438Z,976.74
2016-04-20T09:03:43.457Z,976.74
2016-04-20T09:04:43.474Z,976.75
2016-04-20T09:05:43.462Z,976.79
2016-04-20T09:06:43.464Z,976.84
2016-04-20T09:07:43.483Z,976.83
2016-04-20T09:08:43.485Z,976.76
2016-04-20T09:09:43.488Z,976.75
2016-04-20T09:10:43.491Z,976.78
2016-04-20T09:11:43.494Z,976.68
2016-04-20T09:12:43.512Z,976.66
2016-04-20T09:13:43.515Z,976.64
2016-04-20T09:14:43.518Z,976.8
2016-04-20T09:15:43.535Z,976.82
2016-04-20T09:16:43.523Z,976.7
2016-04-20T09:17:43.540Z,976.73
2016-04-20T09:18:43.543Z,976.66
2016-04-20T09:19:43.546Z,976.69
2016-04-20T09:20:43.549Z,976.82
2016-04-20T09:21:43.551Z,976.68
2016-04-20T09:22:43.553Z,976.8
2016-04-20T09:23:43.572Z,976.67
2016-04-20T09:24:43.575Z,976.67
2016-04-20T09:25:43.577Z,976.74
2016-04-20T09:26:43.580Z,976.61
2016-04-20T09:27:43.598Z,976.66
2016-04-20T09:28:46.132Z,976.61
2016-04-20T09:29:43.604Z,976.63
2016-04-20T09:30:43.607Z,976.71
2016-04-20T09:31:43.609Z,976.7
2016-04-20T09:32:43.612Z,976.64
2016-04-20T09:33:43.614Z,976.73
2016-04-20T09:34:43.617Z,976.68
2016-04-20T09:35:43.635Z,976.67
2016-04-20T09:36:43.637Z,976.8
2016-04-20T09:37:43.640Z,976.74
2016-04-20T09:38:43.642Z,976.7
2016-04-20T09:39:43.756Z,976.71
2016-04-20T09:40:43.648Z,976.71
2016-04-20T09:41:43.651Z,976.7
2016-04-20T09:42:43.654Z,976.79
2016-04-20T09:43:43.672Z,976.69
2016-04-20T09:44:43.675Z,976.75
2016-04-20T09:45:43.677Z,976.76
2016-04-20T09:46:43.680Z,976.8
2016-04-20T09:47:43.683Z,976.91
2016-04-20T09:48:43.686Z,976.77
2016-04-20T09:49:43.705Z,976.79
2016-04-20T09:50:43.769Z,976.9
2016-04-20T09:51:43.710Z,976.79
2016-04-20T09:52:43.712Z,976.78
2016-04-20T09:53:43.715Z,976.83
2016-04-20T09:54:43.718Z,976.76
2016-04-20T09:55:43.721Z,976.77
2016-04-20T09:56:43.723Z,976.67
2016-04-20T09:57:43.726Z,976.76
2016-04-20T09:58:43.729Z,976.78
2016-04-20T09:59:43.731Z,976.77
2016-04-20T10:00:43.734Z,976.78
2016-04-20T10:01:43.751Z,976.75
2016-04-20T10:02:43.754Z,976.71
2016-04-20T10:03:43.757Z,976.74
2016-04-20T10:04:43.759Z,976.77
2016-04-20T10:05:43.762Z,976.7
2016-04-20T10:06:43.765Z,976.67
2016-04-20T10:07:43.767Z,976.83
2016-04-20T10:08:43.770Z,976.72
2016-04-20T10:09:43.789Z,976.79
2016-04-20T10:10:43.776Z,976.69
2016-04-20T10:11:43.779Z,976.64
2016-04-20T10:12:43.781Z,976.59
2016-04-20T10:13:43.800Z,976.61
2016-04-20T10:14:43.803Z,976.66
2016-04-20T10:15:43.806Z,976.7
2016-04-20T10:16:43.808Z,976.76
2016-04-20T10:17:43.826Z,976.65
2016-04-20T10:18:43.814Z,976.63
2016-04-20T10:19:43.816Z,976.62
2016-04-20T10:20:43.819Z,976.6
2016-04-20T10:21:43.822Z,976.58
2016-04-20T10:22:43.824Z,976.69
2016-04-20T10:23:43.827Z,976.68
2016-04-20T10:24:43.830Z,976.64
2016-04-20T10:25:43.832Z,976.68
2016-04-20T10:26:43.850Z,976.65
2016-04-20T10:27:43.837Z,976.6
2016-04-20T10:28:43.840Z,976.72
2016-04-20T10:29:43.858Z,976.59
2016-04-20T10:30:43.861Z,976.58
2016-04-20T10:31:43.863Z,976.54
2016-04-20T10:32:43.866Z,976.64
2016-04-20T10:33:43.869Z,976.59
2016-04-20T10:34:43.888Z,976.49
2016-04-20T10:35:43.875Z,976.53
2016-04-20T10:36:43.877Z,976.54
2016-04-20T10:37:44.051Z,976.52
2016-04-20T10:38:43.882Z,976.52
2016-04-20T10:39:43.885Z,976.48
2016-04-20T10:40:43.887Z,976.49
2016-04-20T10:41:43.907Z,976.55
2016-04-20T10:42:43.893Z,976.57
2016-04-20T10:43:43.896Z,976.5
2016-04-20T10:44:43.898Z,976.66
2016-04-20T10:45:43.901Z,976.54
2016-04-20T10:46:43.904Z,976.62
2016-04-20T10:47:43.923Z,976.53
2016-04-20T10:48:43.909Z,976.52
2016-04-20T10:49:43.912Z,976.54
2016-04-20T10:50:43.930Z,976.49
2016-04-20T10:51:43.933Z,976.4
2016-04-20T10:52:43.936Z,976.48
2016-04-20T10:53:43.938Z,976.64
2016-04-20T10:54:43.941Z,976.61
2016-04-20T10:55:43.944Z,976.61
2016-04-20T10:56:43.947Z,976.55
2016-04-20T10:57:43.949Z,976.62
2016-04-20T10:58:43.952Z,976.55
2016-04-20T10:59:43.954Z,976.42
2016-04-20T11:00:43.957Z,976.44
2016-04-20T11:01:43.960Z,976.43
2016-04-20T11:02:43.963Z,976.48
2016-04-20T11:03:43.966Z,976.42
2016-04-20T11:04:43.968Z,976.48
2016-04-20T11:05:43.971Z,976.46
2016-04-20T11:06:43.973Z,976.48
2016-04-20T11:07:43.976Z,976.45
2016-04-20T11:08:43.979Z,976.5
2016-04-20T11:09:43.982Z,976.59
2016-04-20T11:10:43.984Z,976.5
2016-04-20T11:11:43.987Z,976.5
2016-04-20T11:12:44.006Z,976.46
2016-04-20T11:13:43.993Z,976.44
2016-04-20T11:14:43.995Z,976.48
2016-04-20T11:15:43.998Z,976.44
2016-04-20T11:16:44.016Z,976.51
2016-04-20T11:17:44.019Z,976.43
2016-04-20T11:18:44.022Z,976.49
2016-04-20T11:19:44.025Z,976.52
2016-04-20T11:20:44.028Z,976.43
2016-04-20T11:21:44.030Z,976.4
2016-04-20T11:22:44.033Z,976.41
2016-04-20T11:23:44.035Z,976.57
2016-04-20T11:24:44.038Z,976.56
2016-04-20T11:25:44.041Z,976.49
2016-04-20T11:26:44.043Z,976.51
2016-04-20T11:27:44.046Z,976.46
2016-04-20T11:28:44.048Z,976.53
2016-04-20T11:29:44.051Z,976.48
2016-04-20T11:30:44.054Z,976.48
2016-04-20T11:31:44.057Z,976.38
2016-04-20T11:32:44.060Z,976.4
2016-04-20T11:33:44.063Z,976.39
2016-04-20T11:34:44.065Z,976.41
2016-04-20T11:35:44.068Z,976.36
2016-04-20T11:36:44.070Z,976.5
2016-04-20T11:37:44.073Z,976.37
2016-04-20T11:38:44.076Z,976.38
2016-04-20T11:39:44.079Z,976.39
2016-04-20T11:40:44.081Z,976.36
2016-04-20T11:41:44.084Z,976.4
2016-04-20T11:42:44.086Z,976.38
2016-04-20T11:43:44.089Z,976.4
2016-04-20T11:44:44.091Z,976.41
2016-04-20T11:45:44.095Z,976.42
2016-04-20T11:46:44.097Z,976.32
2016-04-20T11:47:44.114Z,976.32
2016-04-20T11:48:44.103Z,976.25
2016-04-20T11:49:44.105Z,976.32
2016-04-20T11:50:44.108Z,976.43
2016-04-20T11:51:44.111Z,976.34
2016-04-20T11:52:44.113Z,976.42
2016-04-20T11:53:44.116Z,976.29
2016-04-20T11:54:44.134Z,976.28
2016-04-20T11:55:44.136Z,976.33
2016-04-20T11:56:44.124Z,976.29
2016-04-20T11:57:44.141Z,976.4
2016-04-20T11:58:44.144Z,976.34
2016-04-20T11:59:44.148Z,976.32
2016-04-20T12:00:44.150Z,976.4
2016-04-20T12:01:44.138Z,976.3
2016-04-20T12:02:44.140Z,976.3
2016-04-20T12:03:44.157Z,976.24
2016-04-20T12:04:44.145Z,976.24
2016-04-20T12:05:44.164Z,976.25
2016-04-20T12:06:44.166Z,976.25
2016-04-20T12:07:44.154Z,976.24
2016-04-20T12:08:44.156Z,976.28
2016-04-20T12:09:44.174Z,976.21
2016-04-20T12:10:44.176Z,976.3
2016-04-20T12:11:44.179Z,976.23
2016-04-20T12:12:44.183Z,976.23
2016-04-20T12:13:44.185Z,976.2
2016-04-20T12:14:44.188Z,976.19
2016-04-20T12:15:44.190Z,976.2
2016-04-20T12:16:44.177Z,976.16
2016-04-20T12:17:44.196Z,976.23
2016-04-20T12:18:44.199Z,976.22
2016-04-20T12:19:44.186Z,976.15
2016-04-20T12:20:44.204Z,976.3
2016-04-20T12:21:44.206Z,976.21
2016-04-20T12:22:44.209Z,976.25
2016-04-20T12:23:44.212Z,976.23
2016-04-20T12:24:44.214Z,976.19
2016-04-20T12:25:44.217Z,976.26
2016-04-20T12:26:44.219Z,976.26
2016-04-20T12:27:44.222Z,976.26
2016-04-20T12:28:44.225Z,976.24
2016-04-20T12:29:44.228Z,976.25
2016-04-20T12:30:44.230Z,976.24
2016-04-20T12:31:44.234Z,976.25
2016-04-20T12:32:44.235Z,976.24
2016-04-20T12:33:44.238Z,976.21
2016-04-20T12:34:44.241Z,976.25
2016-04-20T12:35:44.276Z,976.27
2016-04-20T12:36:44.247Z,976.29
2016-04-20T12:37:44.250Z,976.31
2016-04-20T12:38:44.252Z,976.17
2016-04-20T12:39:44.255Z,976.17
2016-04-20T12:40:44.258Z,976.23
2016-04-20T12:41:44.261Z,976.16
2016-04-20T12:42:44.263Z,976.19
2016-04-20T12:43:44.265Z,976.1
2016-04-20T12:44:44.268Z,976.08
2016-04-20T12:45:44.271Z,976.14
2016-04-20T12:46:44.274Z,976.12
2016-04-20T12:47:44.277Z,976.06
2016-04-20T12:48:44.279Z,976.08
2016-04-20T12:49:44.282Z,976.06
2016-04-20T12:50:44.347Z,976.1
2016-04-20T12:51:44.287Z,976.06
2016-04-20T12:52:44.290Z,976.03
2016-04-20T12:53:44.292Z,975.97
2016-04-20T12:54:44.295Z,975.93
2016-04-20T12:55:44.298Z,975.97
2016-04-20T12:56:44.301Z,976.06
2016-04-20T12:57:44.303Z,976.07
2016-04-20T12:58:44.306Z,976.07
2016-04-20T12:59:44.309Z,975.96
2016-04-20T13:00:44.311Z,975.97
2016-04-20T13:01:44.313Z,975.93
2016-04-20T13:02:44.316Z,975.9
2016-04-20T13:03:44.320Z,975.91
2016-04-20T13:04:44.322Z,975.9
2016-04-20T13:05:44.341Z,975.91
2016-04-20T13:06:44.327Z,975.91
2016-04-20T13:07:44.330Z,975.95
2016-04-20T13:08:44.333Z,975.91
2016-04-20T13:09:44.336Z,975.88
2016-04-20T13:10:44.338Z,975.91
2016-04-20T13:11:44.340Z,975.83
2016-04-20T13:12:44.343Z,975.89
2016-04-20T13:13:44.346Z,975.82
2016-04-20T13:14:44.349Z,975.82
2016-04-20T13:15:44.352Z,975.79
2016-04-20T13:16:44.354Z,975.89
2016-04-20T13:17:44.357Z,975.82
2016-04-20T13:18:44.360Z,975.76
2016-04-20T13:19:44.362Z,975.8
2016-04-20T13:20:44.381Z,975.83
2016-04-20T13:21:44.368Z,975.74
2016-04-20T13:22:44.370Z,975.75
2016-04-20T13:23:44.373Z,975.67
2016-04-20T13:24:44.375Z,975.68
2016-04-20T13:25:44.378Z,975.74
2016-04-20T13:26:44.381Z,975.63
2016-04-20T13:27:44.384Z,975.67
2016-04-20T13:28:44.387Z,975.67
2016-04-20T13:29:44.389Z,975.61
2016-04-20T13:30:44.392Z,975.62
2016-04-20T13:31:44.394Z,975.58
2016-04-20T13:32:44.398Z,975.58
2016-04-20T13:33:44.400Z,975.49
2016-04-20T13:34:44.403Z,975.65
2016-04-20T13:35:44.405Z,975.54
2016-04-20T13:36:44.408Z,975.52
2016-04-20T13:37:44.410Z,975.45
2016-04-20T13:38:44.414Z,975.45
2016-04-20T13:39:44.416Z,975.45
2016-04-20T13:40:44.404Z,975.51
2016-04-20T13:41:44.407Z,975.43
2016-04-20T13:42:44.424Z,975.45
2016-04-20T13:43:44.411Z,975.45
2016-04-20T13:44:44.415Z,975.34
2016-04-20T13:45:44.417Z,975.31
2016-04-20T13:46:44.435Z,975.36
2016-04-20T13:47:44.437Z,975.22
2016-04-20T13:48:44.426Z,975.31
2016-04-20T13:49:44.443Z,975.27
2016-04-20T13:50:44.446Z,975.36
2016-04-20T13:51:44.433Z,975.24
2016-04-20T13:52:44.452Z,975.24
2016-04-20T13:53:44.454Z,975.29
2016-04-20T13:54:44.441Z,975.31
2016-04-20T13:55:44.444Z,975.35
2016-04-20T13:56:44.462Z,975.29
2016-04-20T13:57:44.464Z,975.25
2016-04-20T13:58:44.453Z,975.22
2016-04-20T13:59:44.470Z,975.16
2016-04-20T14:00:44.458Z,975.17
2016-04-20T14:01:44.476Z,975.21
2016-04-20T14:02:44.463Z,975.2
2016-04-20T14:03:44.481Z,975.23
2016-04-20T14:04:44.468Z,975.27
2016-04-20T14:05:44.471Z,975.19
2016-04-20T14:06:44.473Z,975.26
2016-04-20T14:07:44.477Z,975.28
2016-04-20T14:08:44.479Z,975.31
2016-04-20T14:09:44.482Z,975.19
2016-04-20T14:10:44.485Z,975.21
2016-04-20T14:11:44.487Z,975.18
2016-04-20T14:12:44.490Z,975.15
2016-04-20T14:13:44.493Z,975.18
2016-04-20T14:14:44.496Z,975.14
2016-04-20T14:15:44.498Z,975.14
2016-04-20T14:16:44.500Z,975.07
2016-04-20T14:17:44.503Z,975.03
2016-04-20T14:18:44.506Z,975.1
2016-04-20T14:19:45.071Z,975.08
2016-04-20T14:20:44.512Z,975.09
2016-04-20T14:21:44.514Z,975
2016-04-20T14:22:44.518Z,975.05
2016-04-20T14:23:44.520Z,975.04
2016-04-20T14:24:44.523Z,975.04
2016-04-20T14:25:44.526Z,974.96
2016-04-20T14:26:44.529Z,974.95
2016-04-20T14:27:44.531Z,974.97
2016-04-20T14:28:44.534Z,974.91
2016-04-20T14:29:44.537Z,975
2016-04-20T14:30:44.540Z,974.9
2016-04-20T14:31:44.542Z,974.89
2016-04-20T14:32:44.544Z,974.85
2016-04-20T14:33:44.547Z,974.89
2016-04-20T14:34:44.550Z,974.82
2016-04-20T14:35:44.537Z,974.82
2016-04-20T14:36:44.555Z,974.83
2016-04-20T14:37:44.558Z,974.75
2016-04-20T14:38:44.561Z,974.71
2016-04-20T14:39:44.548Z,974.74
2016-04-20T14:40:44.566Z,974.69
2016-04-20T14:41:44.569Z,974.68
2016-04-20T14:42:44.556Z,974.66
2016-04-20T14:43:44.574Z,974.64
2016-04-20T14:44:44.561Z,974.63
2016-04-20T14:45:44.564Z,974.71
2016-04-20T14:46:44.567Z,974.65
2016-04-20T14:47:44.585Z,974.65
2016-04-20T14:48:44.572Z,974.64
2016-04-20T14:49:44.575Z,974.68
2016-04-20T14:50:44.593Z,974.66
2016-04-20T14:51:44.580Z,974.75
2016-04-20T14:52:44.582Z,974.64
2016-04-20T14:53:44.585Z,974.67
2016-04-20T14:54:44.588Z,974.57
2016-04-20T14:55:44.591Z,974.64
2016-04-20T14:56:44.593Z,974.6
2016-04-20T14:57:44.596Z,974.58
2016-04-20T14:58:44.599Z,974.63
2016-04-20T14:59:44.602Z,974.57
2016-04-20T15:00:44.604Z,974.65
2016-04-20T15:01:44.607Z,974.62
2016-04-20T15:02:44.609Z,974.6
2016-04-20T15:03:44.612Z,974.61
2016-04-20T15:04:44.614Z,974.52
2016-04-20T15:05:44.617Z,974.5
2016-04-20T15:06:44.620Z,974.49
2016-04-20T15:07:44.623Z,974.51
2016-04-20T15:08:44.626Z,974.51
2016-04-20T15:09:44.629Z,974.54
2016-04-20T15:10:44.631Z,974.58
2016-04-20T15:11:44.634Z,974.63
2016-04-20T15:12:44.636Z,974.61
2016-04-20T15:13:44.639Z,974.55
2016-04-20T15:14:44.641Z,974.54
2016-04-20T15:15:44.644Z,974.73
2016-04-20T15:16:44.647Z,974.59
2016-04-20T15:17:44.649Z,974.56
2016-04-20T15:18:44.652Z,974.59
2016-04-20T15:19:44.671Z,974.61
2016-04-20T15:20:44.658Z,974.54
2016-04-20T15:21:44.660Z,974.56
2016-04-20T15:22:44.663Z,974.52
2016-04-20T15:23:44.666Z,974.59
2016-04-20T15:24:44.652Z,974.6
2016-04-20T15:25:44.671Z,974.55
2016-04-20T15:26:44.658Z,974.61
2016-04-20T15:27:44.676Z,974.55
2016-04-20T15:28:44.664Z,974.5
2016-04-20T15:29:44.666Z,974.5
2016-04-20T15:30:44.669Z,974.49
2016-04-20T15:31:44.671Z,974.55
2016-04-20T15:32:44.674Z,974.52
2016-04-20T15:33:44.677Z,974.51
2016-04-20T15:34:44.679Z,974.55
2016-04-20T15:35:44.682Z,974.53
2016-04-20T15:36:44.689Z,974.48
2016-04-20T15:37:44.692Z,974.48
2016-04-20T15:38:44.695Z,974.5
2016-04-20T15:39:44.697Z,974.6
2016-04-20T15:40:44.701Z,974.54
2016-04-20T15:41:44.703Z,974.51
2016-04-20T15:42:44.706Z,974.45
2016-04-20T15:43:44.709Z,974.46
2016-04-20T15:44:44.712Z,974.49
2016-04-20T15:45:44.714Z,974.49
2016-04-20T15:46:44.702Z,974.51
2016-04-20T15:47:44.720Z,974.47
2016-04-20T15:48:44.708Z,974.49
2016-04-20T15:49:44.710Z,974.46
2016-04-20T15:50:44.713Z,974.55
2016-04-20T15:51:44.715Z,974.49
2016-04-20T15:52:44.718Z,974.46
2016-04-20T15:53:44.736Z,974.35
2016-04-20T15:54:44.738Z,974.35
2016-04-20T15:55:44.726Z,974.42
2016-04-20T15:56:44.728Z,974.42
2016-04-20T15:57:44.731Z,974.37
2016-04-20T15:58:44.771Z,974.38
2016-04-20T15:59:44.815Z,974.35
2016-04-20T16:00:44.860Z,974.35
2016-04-20T16:01:44.904Z,974.25
2016-04-20T16:02:44.953Z,974.32
2016-04-20T16:03:44.974Z,974.41
2016-04-20T16:04:44.997Z,974.32
2016-04-20T16:06:54.488Z,974.26
2016-04-20T16:07:54.488Z,974.38
2016-04-20T16:08:54.511Z,974.28
2016-04-20T16:09:54.505Z,974.33
2016-04-20T16:10:54.512Z,974.4
2016-04-20T16:11:54.521Z,974.28
2016-04-20T16:12:54.527Z,974.38
2016-04-20T16:13:54.532Z,974.34
2016-04-20T16:14:54.521Z,974.25
2016-04-20T16:15:54.542Z,974.29
2016-04-20T16:16:54.529Z,974.44
2016-04-20T16:17:54.550Z,974.3
2016-04-20T16:18:54.538Z,974.24
2016-04-20T16:19:54.541Z,974.22
2016-04-20T16:20:54.545Z,974.27
2016-04-20T16:21:54.564Z,974.21
2016-04-20T16:22:54.552Z,974.22
2016-04-20T16:23:54.570Z,974.25
2016-04-20T16:24:54.557Z,974.22
2016-04-20T16:25:54.560Z,974.3
2016-04-20T16:26:54.563Z,974.3
2016-04-20T16:27:54.566Z,974.28
2016-04-20T16:28:54.569Z,974.31
2016-04-20T16:29:54.572Z,974.37
2016-04-20T16:30:54.575Z,974.2
2016-04-20T16:31:54.577Z,974.25
2016-04-20T16:32:54.580Z,974.19
2016-04-20T16:33:54.582Z,974.19
2016-04-20T16:34:54.585Z,974.19
2016-04-20T16:35:54.588Z,974.21
2016-04-20T16:36:54.590Z,974.27
2016-04-20T16:37:54.593Z,974.2
2016-04-20T16:38:54.580Z,974.2
2016-04-20T16:39:54.599Z,974.18
2016-04-20T16:40:54.585Z,974.18
2016-04-20T16:41:54.604Z,974.13
2016-04-20T16:42:54.607Z,974.14
2016-04-20T16:43:54.593Z,974.11
2016-04-20T16:44:54.596Z,974.05
2016-04-20T16:45:54.599Z,974.06
2016-04-20T16:46:54.617Z,974.17
2016-04-20T16:47:54.604Z,973.99
2016-04-20T16:48:54.607Z,973.98
2016-04-20T16:49:54.626Z,974.02
2016-04-20T16:50:54.613Z,974
2016-04-20T16:51:54.615Z,974
2016-04-20T16:52:54.634Z,974.08
2016-04-20T16:53:54.620Z,973.98
2016-04-20T16:54:54.623Z,973.97
2016-04-20T16:55:54.626Z,974
2016-04-20T16:56:54.628Z,974.05
2016-04-20T16:57:54.631Z,973.95
2016-04-20T16:58:54.634Z,973.96
2016-04-20T16:59:54.637Z,973.96
2016-04-20T17:00:54.639Z,973.88
2016-04-20T17:01:54.627Z,973.97
2016-04-20T17:02:54.629Z,973.83
2016-04-20T17:03:54.632Z,973.87
2016-04-20T17:04:54.635Z,973.87
2016-04-20T17:05:54.638Z,973.83
2016-04-20T17:06:54.640Z,973.9
2016-04-20T17:07:54.643Z,973.82
2016-04-20T17:08:54.646Z,973.81
2016-04-20T17:09:54.648Z,973.81
2016-04-20T17:10:54.666Z,973.76
2016-04-20T17:11:54.669Z,973.81
2016-04-20T17:12:54.672Z,973.76
2016-04-20T17:13:54.659Z,973.75
2016-04-20T17:14:54.662Z,973.73
2016-04-20T17:15:54.665Z,973.78
2016-04-20T17:16:54.652Z,973.76
2016-04-20T17:17:54.685Z,973.62
2016-04-20T17:18:54.672Z,973.73
2016-04-20T17:19:54.659Z,973.73
2016-04-20T17:20:54.678Z,973.65
2016-04-20T17:21:54.665Z,973.74
2016-04-20T17:22:54.684Z,973.66
2016-04-20T17:23:54.670Z,973.71
2016-04-20T17:24:54.673Z,973.63
2016-04-20T17:25:54.676Z,973.66
2016-04-20T17:26:54.678Z,973.67
2016-04-20T17:27:54.680Z,973.7
2016-04-20T17:28:54.683Z,973.79
2016-04-20T17:29:54.687Z,973.7
2016-04-20T17:30:54.689Z,973.67
2016-04-20T17:31:54.691Z,973.71
2016-04-20T17:32:54.695Z,973.76
2016-04-20T17:33:54.697Z,973.73
2016-04-20T17:34:54.700Z,973.72
2016-04-20T17:35:54.688Z,973.7
2016-04-20T17:36:54.705Z,973.66
2016-04-20T17:37:54.693Z,973.72
2016-04-20T17:38:54.695Z,973.72
2016-04-20T17:39:54.698Z,973.74
2016-04-20T17:40:54.701Z,973.74
2016-04-20T17:41:54.704Z,973.71
2016-04-20T17:42:54.707Z,973.71
2016-04-20T17:43:54.709Z,973.7
2016-04-20T17:44:54.712Z,973.74
2016-04-20T17:45:54.715Z,973.7
2016-04-20T17:46:54.717Z,973.75
2016-04-20T17:47:54.720Z,973.7
2016-04-20T17:48:54.722Z,973.72
2016-04-20T17:49:54.710Z,973.71
2016-04-20T17:50:54.712Z,973.68
2016-04-20T17:51:54.715Z,973.71
2016-04-20T17:52:54.717Z,973.66
2016-04-20T17:53:54.726Z,973.69
2016-04-20T17:54:54.729Z,973.7
2016-04-20T17:55:54.731Z,973.79
2016-04-20T17:56:54.734Z,973.71
2016-04-20T17:57:54.737Z,973.63
2016-04-20T17:58:54.739Z,973.72
2016-04-20T17:59:54.726Z,973.75
2016-04-20T18:00:54.728Z,973.68
2016-04-20T18:01:54.747Z,973.73
2016-04-20T18:02:54.734Z,973.79
2016-04-20T18:03:54.736Z,973.71
2016-04-20T18:04:54.740Z,973.77
2016-04-20T18:05:54.742Z,973.78
2016-04-20T18:06:54.821Z,973.75
2016-04-20T18:07:54.730Z,973.82
2016-04-20T18:08:54.749Z,973.78
2016-04-20T18:09:54.751Z,973.77
2016-04-20T18:10:54.753Z,973.74
2016-04-20T18:11:54.742Z,973.78
2016-04-20T18:12:54.759Z,973.87
2016-04-20T18:13:54.746Z,973.74
2016-04-20T18:14:54.749Z,973.79
2016-04-20T18:15:54.767Z,973.8
2016-04-20T18:16:54.770Z,973.84
2016-04-20T18:17:54.762Z,973.87
2016-04-20T18:18:54.748Z,973.89
2016-04-20T18:19:54.766Z,973.85
2016-04-20T18:20:54.754Z,973.97
2016-04-20T18:21:54.776Z,973.86
2016-04-20T18:22:54.764Z,973.89
2016-04-20T18:23:54.751Z,973.85
2016-04-20T18:24:54.753Z,973.91
2016-04-20T18:25:54.755Z,973.87
2016-04-20T18:26:54.759Z,973.88
2016-04-20T18:27:54.777Z,973.91
2016-04-20T18:28:54.764Z,973.88
2016-04-20T18:29:54.767Z,973.96
2016-04-20T18:30:54.769Z,973.9
2016-04-20T18:31:54.772Z,973.92
2016-04-20T18:32:54.775Z,973.94
2016-04-20T18:33:54.777Z,973.89
2016-04-20T18:34:54.765Z,973.95
2016-04-20T18:35:54.783Z,973.94
2016-04-20T18:36:54.771Z,973.93
2016-04-20T18:37:54.773Z,973.95
2016-04-20T18:38:54.776Z,973.97
2016-04-20T18:39:54.779Z,973.97
2016-04-20T18:40:54.782Z,973.96
2016-04-20T18:41:54.784Z,974.08
2016-04-20T18:42:54.771Z,974.01
2016-04-20T18:43:54.789Z,974.05
2016-04-20T18:44:54.776Z,974.01
2016-04-20T18:45:54.778Z,974
2016-04-20T18:46:54.782Z,974.05
2016-04-20T18:47:54.784Z,974.03
2016-04-20T18:48:54.787Z,974.09
2016-04-20T18:49:54.789Z,974.03
2016-04-20T18:50:54.792Z,974.05
2016-04-20T18:51:54.794Z,974.05
2016-04-20T18:52:54.798Z,974.03
2016-04-20T18:53:54.784Z,974.06
2016-04-20T18:54:54.787Z,974.13
2016-04-20T18:55:54.790Z,974.09
2016-04-20T18:56:54.792Z,974.02
2016-04-20T18:57:54.795Z,974.06
2016-04-20T18:58:54.798Z,974.06
2016-04-20T18:59:54.800Z,974.01
2016-04-20T19:00:54.804Z,974.05
2016-04-20T19:01:54.791Z,974.06
2016-04-20T19:02:54.808Z,974.01
2016-04-20T19:03:54.796Z,974.04
2016-04-20T19:04:54.799Z,974.02
2016-04-20T19:05:54.802Z,974.11
2016-04-20T19:06:54.805Z,974.1
2016-04-20T19:07:54.806Z,974.01
2016-04-20T19:08:54.809Z,974.03
2016-04-20T19:09:54.796Z,974.03
2016-04-20T19:10:54.799Z,973.99
2016-04-20T19:11:54.801Z,973.95
2016-04-20T19:12:54.805Z,974.04
2016-04-20T19:13:54.807Z,974.11
2016-04-20T19:14:54.810Z,974.01
2016-04-20T19:15:54.813Z,973.98
2016-04-20T19:16:54.815Z,974.05
2016-04-20T19:17:54.817Z,973.97
2016-04-20T19:18:54.820Z,973.99
2016-04-20T19:19:54.807Z,974.03
2016-04-20T19:20:54.810Z,974.01
2016-04-20T19:21:54.813Z,973.89
2016-04-20T19:22:54.815Z,974.06
2016-04-20T19:23:54.818Z,973.96
2016-04-20T19:24:54.820Z,974
2016-04-20T19:25:54.808Z,974
2016-04-20T19:26:54.826Z,973.95
2016-04-20T19:27:54.814Z,974.03
2016-04-20T19:28:54.831Z,974.01
2016-04-20T19:29:54.819Z,974
2016-04-20T19:30:54.822Z,974.01
2016-04-20T19:31:54.824Z,974.01
2016-04-20T19:32:54.828Z,973.99
2016-04-20T19:33:54.830Z,973.99
2016-04-20T19:34:54.832Z,973.92
2016-04-20T19:35:54.819Z,973.91
2016-04-20T19:36:54.822Z,974.04
2016-04-20T19:37:54.824Z,974.03
2016-04-20T19:38:54.828Z,973.97
2016-04-20T19:39:54.830Z,974.04
2016-04-20T19:40:54.833Z,973.98
2016-04-20T19:41:54.836Z,974.04
2016-04-20T19:42:54.838Z,974.1
2016-04-20T19:43:54.826Z,973.94
2016-04-20T19:44:54.828Z,973.96
2016-04-20T19:45:54.831Z,973.97
2016-04-20T19:46:54.834Z,973.97
2016-04-20T19:47:54.837Z,974.03
2016-04-20T19:48:54.839Z,974.01
2016-04-20T19:49:54.826Z,973.99
2016-04-20T19:50:54.829Z,973.96
2016-04-20T19:51:54.831Z,974.04
2016-04-20T19:52:54.834Z,973.98
2016-04-20T19:53:54.836Z,974.03
2016-04-20T19:54:54.839Z,973.98
2016-04-20T19:55:54.842Z,973.97
2016-04-20T19:56:54.845Z,973.98
2016-04-20T19:57:54.847Z,973.94
2016-04-20T19:58:54.850Z,974.02
2016-04-20T19:59:54.837Z,973.93
2016-04-20T20:00:54.840Z,973.95
2016-04-20T20:01:54.842Z,973.98
2016-04-20T20:02:54.845Z,973.91
2016-04-20T20:03:54.847Z,973.95
2016-04-20T20:04:54.851Z,974.03
2016-04-20T20:05:54.853Z,974.01
2016-04-20T20:06:54.856Z,973.93
2016-04-20T20:07:54.858Z,973.91
2016-04-20T20:08:54.846Z,973.9
2016-04-20T20:09:54.848Z,973.95
2016-04-20T20:10:54.851Z,973.97
2016-04-20T20:11:54.855Z,973.89
2016-04-20T20:12:54.856Z,973.92
2016-04-20T20:13:54.843Z,973.93
2016-04-20T20:14:54.846Z,974.02
2016-04-20T20:15:54.849Z,973.88
2016-04-20T20:16:54.852Z,973.93
2016-04-20T20:17:54.854Z,973.9
2016-04-20T20:18:54.857Z,973.92
2016-04-20T20:19:54.860Z,973.95
2016-04-20T20:20:54.862Z,973.89
2016-04-20T20:21:54.859Z,973.85
2016-04-20T20:22:54.854Z,973.82
2016-04-20T20:23:54.873Z,973.93
2016-04-20T20:24:54.859Z,973.87
2016-04-20T20:25:54.862Z,973.91
2016-04-20T20:26:54.864Z,973.97
2016-04-20T20:27:54.868Z,973.9
2016-04-20T20:28:54.870Z,973.91
2016-04-20T20:29:54.857Z,973.88
2016-04-20T20:30:54.876Z,973.83
2016-04-20T20:31:54.863Z,973.87
2016-04-20T20:32:54.866Z,973.92
2016-04-20T20:33:54.868Z,973.87
2016-04-20T20:34:54.855Z,973.86
2016-04-20T20:35:54.874Z,973.89
2016-04-20T20:36:54.860Z,973.94
2016-04-20T20:37:54.864Z,973.86
2016-04-20T20:38:54.866Z,973.91
2016-04-20T20:39:54.868Z,973.95
2016-04-20T20:40:54.871Z,973.89
2016-04-20T20:41:54.874Z,973.84
2016-04-20T20:42:54.876Z,973.87
2016-04-20T20:43:54.864Z,973.9
2016-04-20T20:44:54.867Z,973.78
2016-04-20T20:45:54.869Z,973.85
2016-04-20T20:46:54.873Z,973.81
2016-04-20T20:47:54.875Z,973.85
2016-04-20T20:48:54.861Z,973.87
2016-04-20T20:49:54.881Z,973.94
2016-04-20T20:50:54.883Z,973.83
2016-04-20T20:51:54.869Z,973.86
2016-04-20T20:52:54.872Z,973.8
2016-04-20T20:53:54.876Z,973.87
2016-04-20T20:54:54.878Z,973.79
2016-04-20T20:55:54.881Z,973.82
2016-04-20T20:56:54.883Z,973.93
2016-04-20T20:57:54.870Z,973.93
2016-04-20T20:58:54.888Z,973.82
2016-04-20T20:59:54.876Z,973.93